Aviation Digital Data Service (ADDS)

Output produced by METARs form (0335 UTC 30 May 2017)
found at http://www.aviationweather.gov/adds/metars/
 
KDCA 292326Z 3000/3024 32006KT P6SM BKN200 
     FM300200 09005KT P6SM BKN200 
     FM300500 11005KT 4SM BR BKN010 
     FM300900 09005KT 3SM BR OVC005 
     FM301500 13005KT P6SM BKN020 
     FM302000 15006KT P6SM BKN140